Time;durP1;ratioP1;P1;durP2;ratioP2;P2;SDS_P1;SDS_P2;PMS_P1;PMS_P2;Temp;Humidity;BMP_temperature;BMP_pressure;BME280_temperature;BME280_humidity;BME280_pressure;Samples;Min_cycle;Max_cycle;Signal;HPM_P1;HPM_P2
2022/09/27 00:02:13;;;;;;;0.97;0.90;;;22.20;41.10;;;;;;4993756;28;20848;-62
2022/09/27 00:04:38;;;;;;;0.90;0.90;;;22.20;41.10;;;;;;4998440;28;20273;-61
2022/09/27 00:07:04;;;;;;;0.90;0.90;;;22.20;41.10;;;;;;4997504;28;21068;-65
2022/09/27 00:09:30;;;;;;;0.90;0.80;;;22.20;41.10;;;;;;4997006;28;20227;-64
2022/09/27 00:11:56;;;;;;;0.90;0.90;;;22.30;41.20;;;;;;4996707;28;20456;-61
2022/09/27 00:14:21;;;;;;;0.90;0.80;;;22.20;41.10;;;;;;4996140;28;20223;-64
2022/09/27 00:16:47;;;;;;;1.10;1.00;;;22.20;41.20;;;;;;4995118;28;20306;-62
2022/09/27 00:19:15;;;;;;;1.47;1.00;;;22.20;41.10;;;;;;4993297;28;20223;-62
2022/09/27 00:21:42;;;;;;;1.27;0.93;;;22.20;41.10;;;;;;4992068;28;20219;-66
2022/09/27 00:24:16;;;;;;;1.10;1.00;;;22.20;41.10;;;;;;4999538;28;20585;-68
2022/09/27 00:26:42;;;;;;;0.90;0.90;;;22.20;41.10;;;;;;4994351;28;21039;-67
2022/09/27 00:29:09;;;;;;;1.00;0.90;;;22.20;41.10;;;;;;4993299;28;20457;-62
2022/09/27 00:31:36;;;;;;;1.20;1.10;;;22.20;41.10;;;;;;4994888;28;20465;-62
2022/09/27 00:34:03;;;;;;;1.10;1.00;;;22.20;41.90;;;;;;4994151;28;20450;-68
2022/09/27 00:36:30;;;;;;;0.93;0.83;;;22.20;41.10;;;;;;4990988;28;20445;-64
2022/09/27 00:38:58;;;;;;;1.10;1.00;;;22.20;41.10;;;;;;4995798;28;20466;-61
2022/09/27 00:41:31;;;;;;;0.93;0.83;;;22.20;41.10;;;;;;5000614;28;20450;-67
2022/09/27 00:44:23;;;;;;;1.00;0.80;;;22.20;41.10;;;;;;4996024;28;20756;-60
2022/09/27 00:46:50;;;;;;;0.90;0.90;;;22.20;41.10;;;;;;4993006;28;23854;-61
2022/09/27 00:49:51;;;;;;;2.10;0.90;;;22.20;41.10;;;;;;4997102;28;20514;-61
2022/09/27 00:52:25;;;;;;;1.00;0.90;;;22.20;41.10;;;;;;4989864;28;20481;-62
2022/09/27 00:54:56;;;;;;;1.00;0.90;;;22.20;41.90;;;;;;4996504;28;20473;-62
2022/09/27 00:57:22;;;;;;;1.03;0.93;;;22.20;41.10;;;;;;4996101;28;20461;-64
2022/09/27 01:00:14;;;;;;;1.30;1.20;;;22.20;41.10;;;;;;4997807;28;20460;-70
2022/09/27 01:02:46;;;;;;;1.10;1.00;;;22.20;41.10;;;;;;4974141;28;20491;-65
2022/09/27 01:05:14;;;;;;;0.80;0.80;;;22.20;41.10;;;;;;4997632;28;20485;-62
2022/09/27 01:07:39;;;;;;;0.80;0.80;;;22.20;41.10;;;;;;4995783;28;20554;-65
2022/09/27 01:10:07;;;;;;;0.70;0.70;;;22.20;41.10;;;;;;5000979;28;20971;-61
2022/09/27 01:13:02;;;;;;;0.90;0.90;;;22.20;41.10;;;;;;5002370;28;20242;-64
2022/09/27 01:15:38;;;;;;;0.80;0.80;;;22.20;41.10;;;;;;4998397;28;20466;-62
2022/09/27 01:18:18;;;;;;;1.10;1.00;;;22.20;41.10;;;;;;4997886;28;20547;-63
2022/09/27 01:21:17;;;;;;;1.07;0.80;;;22.20;41.10;;;;;;5001164;28;20492;-66
2022/09/27 01:23:42;;;;;;;1.10;1.00;;;22.20;41.10;;;;;;5002548;28;20484;-64
2022/09/27 01:26:08;;;;;;;0.90;0.90;;;22.20;41.10;;;;;;5001226;28;20808;-61
2022/09/27 01:28:52;;;;;;;0.90;0.80;;;22.20;41.10;;;;;;5000053;28;20781;-61
2022/09/27 01:31:49;;;;;;;1.33;0.90;;;22.20;41.10;;;;;;4997127;28;20230;-61
2022/09/27 01:34:27;;;;;;;0.80;0.80;;;22.20;41.10;;;;;;4998911;28;20461;-63
2022/09/27 01:37:12;;;;;;;1.27;0.73;;;22.20;41.10;;;;;;4996961;28;20471;-62
2022/09/27 01:40:04;;;;;;;1.10;1.00;;;22.20;41.10;;;;;;4996884;28;20461;-61
2022/09/27 01:43:05;;;;;;;0.90;0.90;;;22.20;41.10;;;;;;4998670;28;20473;-64
2022/09/27 01:45:57;;;;;;;0.70;0.70;;;22.20;41.10;;;;;;4994979;28;20485;-64
2022/09/27 01:48:25;;;;;;;0.80;0.80;;;22.20;41.10;;;;;;4996954;28;20855;-68
2022/09/27 01:51:00;;;;;;;0.80;0.80;;;22.20;41.10;;;;;;4998443;28;20449;-61
2022/09/27 01:53:35;;;;;;;0.80;0.73;;;22.20;41.10;;;;;;4996355;28;20612;-61
2022/09/27 01:56:09;;;;;;;1.03;0.90;;;22.20;41.10;;;;;;4995391;28;20460;-61
2022/09/27 01:58:59;;;;;;;1.00;0.90;;;22.20;41.10;;;;;;4996413;28;21033;-62
2022/09/27 02:01:28;;;;;;;1.00;0.90;;;22.20;41.10;;;;;;4996659;28;20461;-64
2022/09/27 02:03:57;;;;;;;1.00;0.80;;;22.20;41.10;;;;;;4995603;28;20457;-61
2022/09/27 02:06:28;;;;;;;0.80;0.70;;;22.20;41.10;;;;;;4998867;28;20479;-61
2022/09/27 02:09:04;;;;;;;1.00;0.80;;;22.20;41.10;;;;;;4990934;28;20457;-63
2022/09/27 02:11:30;;;;;;;1.03;0.90;;;22.20;41.10;;;;;;4987462;28;21041;-63
2022/09/27 02:14:28;;;;;;;0.80;0.80;;;22.20;41.10;;;;;;4991418;28;20465;-66
2022/09/27 02:17:03;;;;;;;0.90;0.80;;;22.20;41.10;;;;;;4960131;28;20752;-62
2022/09/27 02:19:54;;;;;;;1.03;0.93;;;22.10;41.10;;;;;;4993164;28;20461;-61
2022/09/27 02:22:36;;;;;;;0.70;0.70;;;22.20;41.10;;;;;;4996196;28;20461;-61
2022/09/27 02:25:07;;;;;;;0.97;0.90;;;22.20;41.10;;;;;;4995729;28;20491;-62
2022/09/27 02:27:39;;;;;;;0.70;0.70;;;22.20;41.30;;;;;;4996138;28;20498;-61
2022/09/27 02:30:10;;;;;;;1.10;1.00;;;22.20;41.10;;;;;;4997411;28;20468;-62
2022/09/27 02:32:37;;;;;;;1.00;0.90;;;22.20;41.10;;;;;;4999248;28;20470;-61
2022/09/27 02:35:16;;;;;;;1.10;1.00;;;22.20;41.10;;;;;;4997918;28;21047;-63
2022/09/27 02:37:42;;;;;;;0.80;0.70;;;22.20;41.10;;;;;;4997584;28;20858;-61
2022/09/27 02:40:08;;;;;;;1.87;1.00;;;22.20;41.10;;;;;;4995447;28;20545;-64
2022/09/27 02:42:34;;;;;;;0.90;0.90;;;22.20;41.10;;;;;;4980086;28;20285;-63
2022/09/27 02:45:01;;;;;;;0.73;0.73;;;22.20;41.10;;;;;;4996332;28;20980;-62
2022/09/27 02:48:07;;;;;;;0.97;0.90;;;22.20;41.10;;;;;;4995472;28;20310;-63
2022/09/27 02:51:01;;;;;;;4.83;0.90;;;22.20;41.10;;;;;;4997628;28;20460;-65
2022/09/27 02:53:43;;;;;;;1.03;0.90;;;22.20;41.10;;;;;;4984145;28;20471;-64
2022/09/27 02:56:15;;;;;;;0.90;0.90;;;22.10;41.10;;;;;;4994991;28;20491;-61
2022/09/27 02:58:43;;;;;;;3.53;0.90;;;22.10;41.10;;;;;;4999823;28;20536;-68
2022/09/27 03:01:22;;;;;;;0.80;0.70;;;22.20;41.10;;;;;;4993841;28;20837;-66
2022/09/27 03:04:08;;;;;;;0.90;0.70;;;22.10;41.10;;;;;;4992244;28;20480;-63
2022/09/27 03:06:36;;;;;;;0.97;0.90;;;22.20;41.10;;;;;;4996292;28;20461;-66
2022/09/27 03:09:02;;;;;;;1.53;0.80;;;22.10;41.10;;;;;;4998316;28;20469;-64
2022/09/27 03:11:27;;;;;;;0.80;0.70;;;22.10;41.10;;;;;;4993971;28;20468;-61
2022/09/27 03:13:53;;;;;;;0.80;0.80;;;22.20;41.10;;;;;;4994644;28;20219;-63
2022/09/27 03:16:18;;;;;;;0.70;0.70;;;22.20;41.10;;;;;;4999035;28;20647;-64
2022/09/27 03:18:44;;;;;;;0.80;0.80;;;22.20;41.10;;;;;;4996297;28;20227;-66
2022/09/27 03:21:10;;;;;;;0.90;0.70;;;22.20;41.10;;;;;;4997656;28;20227;-61
2022/09/27 03:23:35;;;;;;;0.90;0.80;;;22.20;41.10;;;;;;4998670;28;20235;-64
2022/09/27 03:26:01;;;;;;;1.10;0.97;;;22.20;41.10;;;;;;4994145;28;20318;-62
2022/09/27 03:28:28;;;;;;;1.00;0.87;;;22.10;41.10;;;;;;4997345;28;20264;-61
2022/09/27 03:30:54;;;;;;;0.83;0.70;;;22.20;41.10;;;;;;4995122;28;20307;-62
2022/09/27 03:33:20;;;;;;;0.80;0.80;;;22.10;41.10;;;;;;4996164;28;20536;-62
2022/09/27 03:35:45;;;;;;;1.43;0.60;;;22.20;41.10;;;;;;4997326;28;20230;-61
2022/09/27 03:38:11;;;;;;;0.93;0.90;;;22.20;41.20;;;;;;4997176;28;20307;-64
2022/09/27 03:40:37;;;;;;;1.37;0.80;;;22.20;41.10;;;;;;4998293;28;20312;-64
2022/09/27 03:43:02;;;;;;;0.90;0.90;;;22.10;41.80;;;;;;4996508;28;20238;-62
2022/09/27 03:45:28;;;;;;;0.70;0.60;;;22.10;41.10;;;;;;4995368;28;20231;-61
2022/09/27 03:47:54;;;;;;;0.73;0.73;;;22.10;41.10;;;;;;4993784;28;20218;-64
2022/09/27 03:50:19;;;;;;;0.80;0.70;;;22.10;41.10;;;;;;4998282;28;20243;-61
2022/09/27 03:52:45;;;;;;;1.07;0.90;;;22.10;41.10;;;;;;4995262;28;20259;-64
2022/09/27 03:55:11;;;;;;;0.90;0.90;;;22.10;41.10;;;;;;4995624;28;20227;-61
2022/09/27 03:57:37;;;;;;;1.20;0.80;;;22.10;41.10;;;;;;4998575;28;20313;-63
2022/09/27 04:00:04;;;;;;;0.80;0.70;;;22.10;41.10;;;;;;4997858;28;20470;-69
2022/09/27 04:02:30;;;;;;;0.80;0.70;;;22.10;41.10;;;;;;4995235;28;20501;-65
2022/09/27 04:04:55;;;;;;;1.80;0.70;;;22.10;41.10;;;;;;4988947;28;20972;-61
2022/09/27 04:07:22;;;;;;;0.77;0.70;;;22.10;41.10;;;;;;4992944;28;20224;-63
2022/09/27 04:09:48;;;;;;;0.80;0.80;;;22.10;41.10;;;;;;4990993;28;20239;-62
2022/09/27 04:12:13;;;;;;;0.70;0.70;;;22.10;41.10;;;;;;4988206;28;20449;-65
2022/09/27 04:14:39;;;;;;;0.80;0.80;;;22.10;41.10;;;;;;4994339;28;20232;-63
2022/09/27 04:17:04;;;;;;;0.80;0.70;;;22.10;41.10;;;;;;4989629;28;20230;-61
2022/09/27 04:19:30;;;;;;;2.43;1.13;;;22.10;41.10;;;;;;4988404;28;20215;-61
2022/09/27 04:21:56;;;;;;;1.63;0.80;;;22.10;41.10;;;;;;4994320;28;20223;-68
2022/09/27 04:24:22;;;;;;;0.90;0.90;;;22.10;41.10;;;;;;4988214;28;20424;-70
2022/09/27 04:26:48;;;;;;;0.70;0.70;;;22.10;41.10;;;;;;5002882;28;20291;-65
2022/09/27 04:29:14;;;;;;;1.03;0.93;;;22.10;41.10;;;;;;4991037;28;20229;-64
2022/09/27 04:31:40;;;;;;;0.80;0.70;;;22.20;41.10;;;;;;4994696;28;20448;-63
2022/09/27 04:34:06;;;;;;;0.73;0.73;;;22.20;41.10;;;;;;4995191;28;20518;-67
2022/09/27 04:36:32;;;;;;;0.87;0.73;;;22.20;41.00;;;;;;4988872;28;20231;-63
2022/09/27 04:39:01;;;;;;;0.80;0.60;;;22.20;40.90;;;;;;4985447;28;20465;-61
2022/09/27 04:41:27;;;;;;;1.70;1.13;;;22.20;40.80;;;;;;4973293;28;20246;-60
2022/09/27 04:43:54;;;;;;;0.70;0.70;;;22.20;40.80;;;;;;4988475;28;20477;-62
2022/09/27 04:46:20;;;;;;;0.97;0.70;;;22.20;40.70;;;;;;4970728;28;21138;-66
2022/09/27 04:48:46;;;;;;;1.37;1.00;;;22.20;40.70;;;;;;4989914;28;20950;-61
2022/09/27 04:51:15;;;;;;;2.10;0.73;;;22.20;40.70;;;;;;4992810;28;20242;-62
2022/09/27 04:53:40;;;;;;;0.87;0.80;;;22.20;40.70;;;;;;4996361;28;20960;-61
2022/09/27 04:56:06;;;;;;;1.10;0.80;;;22.30;40.80;;;;;;4990236;28;20463;-63
2022/09/27 04:58:33;;;;;;;0.80;0.70;;;22.20;40.70;;;;;;4974086;28;20216;-62
2022/09/27 05:01:01;;;;;;;0.90;0.70;;;22.20;40.70;;;;;;4986682;28;20228;-61
2022/09/27 05:03:27;;;;;;;0.70;0.70;;;22.20;40.70;;;;;;4974716;28;20520;-69
2022/09/27 05:05:53;;;;;;;1.00;0.80;;;22.20;40.70;;;;;;4986475;28;21371;-61
2022/09/27 05:08:19;;;;;;;1.00;0.80;;;22.20;40.70;;;;;;4983841;28;21345;-62
2022/09/27 05:10:46;;;;;;;0.80;0.80;;;22.20;40.70;;;;;;4988739;28;20453;-68
2022/09/27 05:13:12;;;;;;;0.70;0.70;;;22.20;40.70;;;;;;4979642;28;20482;-65
2022/09/27 05:15:38;;;;;;;2.40;0.70;;;22.20;40.80;;;;;;4995735;28;20511;-62
2022/09/27 05:18:04;;;;;;;1.00;0.90;;;22.20;40.70;;;;;;4994238;28;20451;-61
2022/09/27 05:20:30;;;;;;;0.97;0.90;;;22.20;40.60;;;;;;4990185;28;21174;-65
2022/09/27 05:22:55;;;;;;;2.30;0.70;;;22.20;40.70;;;;;;4998183;28;20634;-62
2022/09/27 05:25:21;;;;;;;2.70;0.80;;;22.20;41.50;;;;;;4982274;28;20236;-62
2022/09/27 05:27:47;;;;;;;1.00;0.70;;;22.20;40.70;;;;;;4994787;28;20228;-64
2022/09/27 05:30:12;;;;;;;0.70;0.70;;;22.20;40.70;;;;;;4984737;28;20896;-67
2022/09/27 05:32:48;;;;;;;0.83;0.80;;;22.20;40.80;;;;;;4985905;28;20710;-65
2022/09/27 05:35:16;;;;;;;1.00;0.80;;;22.20;40.70;;;;;;4990931;28;20227;-64
2022/09/27 05:37:41;;;;;;;0.80;0.80;;;22.20;40.70;;;;;;4987120;28;20471;-64
2022/09/27 05:40:07;;;;;;;0.70;0.70;;;22.20;40.70;;;;;;4988781;28;20469;-65
2022/09/27 05:42:34;;;;;;;1.10;1.00;;;22.20;40.80;;;;;;4993432;28;20234;-64
2022/09/27 05:45:00;;;;;;;0.80;0.70;;;22.20;40.70;;;;;;4990082;28;20228;-64
2022/09/27 05:47:26;;;;;;;1.00;0.63;;;22.20;40.70;;;;;;4999030;28;20484;-63
2022/09/27 05:49:52;;;;;;;1.00;0.80;;;22.20;41.50;;;;;;4994324;28;20224;-62
2022/09/27 05:52:18;;;;;;;0.83;0.70;;;22.20;40.70;;;;;;5000614;28;20238;-62
2022/09/27 05:54:44;;;;;;;2.00;0.80;;;22.20;40.70;;;;;;4996183;28;20484;-63
2022/09/27 05:57:09;;;;;;;0.80;0.70;;;22.20;40.70;;;;;;4999521;28;20234;-60
2022/09/27 05:59:35;;;;;;;0.87;0.80;;;22.20;40.70;;;;;;4991024;28;20465;-61
2022/09/27 06:02:01;;;;;;;0.73;0.63;;;22.20;40.70;;;;;;4990654;28;20238;-61
2022/09/27 06:04:26;;;;;;;0.80;0.70;;;22.20;40.70;;;;;;4993728;28;20240;-64
2022/09/27 06:06:52;;;;;;;0.80;0.80;;;22.20;40.70;;;;;;4995678;28;20219;-63
2022/09/27 06:09:17;;;;;;;1.50;1.00;;;22.20;40.70;;;;;;4996366;28;20228;-60
2022/09/27 06:11:44;;;;;;;1.30;0.80;;;22.20;40.80;;;;;;4994702;28;20303;-60
2022/09/27 06:14:13;;;;;;;0.70;0.70;;;22.20;40.70;;;;;;4988144;28;20249;-66
2022/09/27 06:16:39;;;;;;;0.70;0.67;;;22.20;40.70;;;;;;4992969;28;20456;-59
2022/09/27 06:19:04;;;;;;;0.90;0.70;;;22.20;40.70;;;;;;4986941;28;20461;-64
2022/09/27 06:21:30;;;;;;;0.90;0.67;;;22.20;40.70;;;;;;4990655;28;20305;-61
2022/09/27 06:23:58;;;;;;;1.83;0.93;;;22.20;40.60;;;;;;4987650;28;20573;-64
2022/09/27 06:26:28;;;;;;;0.70;0.60;;;22.20;40.70;;;;;;4991492;28;20547;-61
2022/09/27 06:28:54;;;;;;;0.70;0.70;;;22.20;40.70;;;;;;4990714;28;20461;-64
2022/09/27 06:31:20;;;;;;;1.43;0.80;;;22.20;40.70;;;;;;4990990;28;20453;-61
2022/09/27 06:33:46;;;;;;;0.70;0.60;;;22.20;40.60;;;;;;4995297;28;20449;-66
2022/09/27 06:36:12;;;;;;;0.90;0.70;;;22.20;40.70;;;;;;4989475;28;20454;-62
2022/09/27 06:38:37;;;;;;;0.90;0.77;;;22.20;40.70;;;;;;4994157;28;20468;-63
2022/09/27 06:41:05;;;;;;;0.80;0.70;;;22.20;40.60;;;;;;4992760;28;20233;-59
2022/09/27 06:43:32;;;;;;;0.70;0.67;;;22.20;40.70;;;;;;4989386;28;20235;-59
2022/09/27 06:46:03;;;;;;;1.67;0.80;;;22.20;40.60;;;;;;4973443;28;20459;-60
2022/09/27 06:48:30;;;;;;;0.83;0.70;;;22.20;40.60;;;;;;4996128;28;20449;-67
2022/09/27 06:50:56;;;;;;;0.90;0.80;;;22.20;40.70;;;;;;4973684;28;20514;-60
2022/09/27 06:53:23;;;;;;;0.73;0.73;;;22.20;40.60;;;;;;4990230;28;21537;-64
2022/09/27 06:55:50;;;;;;;1.97;1.00;;;22.20;40.70;;;;;;4984016;28;20472;-61
2022/09/27 07:01:01;;;;;;;1.50;1.20;;;22.20;40.60;;;;;;4981747;28;20542;-65
2022/09/27 07:03:30;;;;;;;0.70;0.60;;;22.20;40.60;;;;;;4984891;28;20977;-66
2022/09/27 07:05:58;;;;;;;1.20;0.70;;;22.20;40.70;;;;;;4997084;28;20449;-59
2022/09/27 07:08:25;;;;;;;1.60;1.00;;;22.20;40.70;;;;;;4997138;28;20461;-63
2022/09/27 07:10:51;;;;;;;1.43;1.00;;;22.20;40.60;;;;;;4991905;28;20971;-59
2022/09/27 07:13:17;;;;;;;1.10;0.70;;;22.20;40.60;;;;;;4995765;28;20483;-62
2022/09/27 07:15:43;;;;;;;1.20;0.70;;;22.20;40.70;;;;;;4987369;28;20456;-63
2022/09/27 07:18:09;;;;;;;0.87;0.70;;;22.20;40.60;;;;;;4987723;28;20232;-68
2022/09/27 07:20:37;;;;;;;0.70;0.70;;;22.20;40.60;;;;;;4991230;28;20270;-60
2022/09/27 07:23:04;;;;;;;0.97;0.80;;;22.20;40.60;;;;;;4987684;28;20673;-63
2022/09/27 07:25:30;;;;;;;0.80;0.70;;;22.20;40.60;;;;;;4986916;28;20480;-64
2022/09/27 07:28:03;;;;;;;0.90;0.80;;;22.20;40.60;;;;;;4969501;28;20539;-63
2022/09/27 07:30:29;;;;;;;2.10;0.70;;;22.20;40.50;;;;;;4987413;28;20321;-66
2022/09/27 07:32:59;;;;;;;1.40;0.73;;;22.20;40.50;;;;;;4987660;28;21025;-63
2022/09/27 07:35:25;;;;;;;0.70;0.60;;;22.20;40.50;;;;;;4992028;28;21214;-60
2022/09/27 07:37:51;;;;;;;0.80;0.70;;;22.20;40.50;;;;;;4991151;28;20500;-69
2022/09/27 07:40:17;;;;;;;0.70;0.60;;;22.20;40.50;;;;;;4992827;28;20231;-59
2022/09/27 07:42:42;;;;;;;0.90;0.60;;;22.20;40.50;;;;;;4990013;28;20453;-66
2022/09/27 07:45:10;;;;;;;0.70;0.60;;;22.20;40.50;;;;;;4990751;28;21036;-59
2022/09/27 07:47:40;;;;;;;1.27;0.77;;;22.20;40.50;;;;;;4991570;28;20681;-61
2022/09/27 07:50:09;;;;;;;0.80;0.67;;;22.20;40.50;;;;;;4998578;28;20557;-63
2022/09/27 07:52:40;;;;;;;0.83;0.77;;;22.20;40.40;;;;;;4994149;28;20526;-66
2022/09/27 07:55:06;;;;;;;1.47;0.60;;;22.20;40.30;;;;;;4995138;28;20464;-59
2022/09/27 07:57:33;;;;;;;1.10;1.00;;;22.20;40.40;;;;;;4990901;28;20465;-65
2022/09/27 07:59:58;;;;;;;1.47;0.60;;;22.20;40.40;;;;;;4998885;28;20489;-63
2022/09/27 08:02:24;;;;;;;1.00;0.90;;;22.20;40.40;;;;;;4988638;28;20873;-63
2022/09/27 08:04:50;;;;;;;1.00;0.90;;;22.20;40.40;;;;;;4987354;28;20289;-68
2022/09/27 08:07:16;;;;;;;0.70;0.70;;;22.20;40.40;;;;;;4973669;28;20242;-64
2022/09/27 08:09:41;;;;;;;0.80;0.70;;;22.20;40.50;;;;;;4985112;28;21046;-62
2022/09/27 08:12:07;;;;;;;0.70;0.60;;;22.20;40.40;;;;;;4993293;28;20219;-67
2022/09/27 08:14:33;;;;;;;1.97;0.73;;;22.20;40.30;;;;;;4988477;28;20261;-62
2022/09/27 08:16:58;;;;;;;0.80;0.60;;;22.20;40.30;;;;;;4991964;28;20258;-60
2022/09/27 08:19:25;;;;;;;0.70;0.70;;;22.20;40.40;;;;;;4985677;28;20226;-62
2022/09/27 08:21:53;;;;;;;0.60;0.60;;;22.20;40.30;;;;;;4986744;28;20247;-61
2022/09/27 08:24:19;;;;;;;0.80;0.80;;;22.20;40.30;;;;;;4989439;28;20627;-62
2022/09/27 08:26:45;;;;;;;0.80;0.70;;;22.10;40.30;;;;;;4986566;28;20596;-64
2022/09/27 08:29:11;;;;;;;0.70;0.60;;;22.20;40.40;;;;;;4990687;28;20465;-66
2022/09/27 08:31:37;;;;;;;0.80;0.80;;;22.20;40.30;;;;;;4985493;28;20219;-62
2022/09/27 08:34:03;;;;;;;0.80;0.80;;;22.20;40.30;;;;;;4989899;28;20566;-62
2022/09/27 08:36:30;;;;;;;1.00;0.83;;;22.10;40.30;;;;;;4972022;28;20397;-63
2022/09/27 08:38:58;;;;;;;0.70;0.60;;;22.20;40.40;;;;;;4989242;28;20468;-63
2022/09/27 08:41:49;;;;;;;0.70;0.70;;;22.20;40.30;;;;;;4990498;28;20468;-64
2022/09/27 08:44:40;;;;;;;0.90;0.70;;;22.10;40.30;;;;;;4986292;28;20528;-62
2022/09/27 08:47:24;;;;;;;0.93;0.67;;;22.20;40.30;;;;;;4972716;28;20473;-63
2022/09/27 08:49:55;;;;;;;0.60;0.60;;;22.10;40.20;;;;;;4981556;28;20559;-64
2022/09/27 08:52:31;;;;;;;0.87;0.70;;;22.20;40.30;;;;;;4988117;28;21093;-65
2022/09/27 08:55:05;;;;;;;0.77;0.70;;;22.20;40.30;;;;;;4984964;28;20476;-61
2022/09/27 08:57:30;;;;;;;1.10;0.70;;;22.20;40.40;;;;;;4990437;28;21045;-63
2022/09/27 09:00:10;;;;;;;0.60;0.60;;;22.20;40.30;;;;;;4988624;28;20464;-63
2022/09/27 09:02:36;;;;;;;0.80;0.70;;;22.20;40.30;;;;;;4986239;28;20239;-63
2022/09/27 09:05:14;;;;;;;1.10;0.80;;;22.10;40.30;;;;;;4984428;28;20496;-60
2022/09/27 09:07:56;;;;;;;0.80;0.70;;;22.20;40.30;;;;;;4986330;28;20465;-65
2022/09/27 09:13:47;;;;;;;1.00;0.80;;;22.10;40.30;;;;;;4986214;28;20511;-64
2022/09/27 09:16:27;;;;;;;1.20;0.70;;;22.10;40.20;;;;;;4990414;28;20488;-64
2022/09/27 09:19:20;;;;;;;1.67;0.70;;;22.10;40.20;;;;;;4989398;28;20461;-62
2022/09/27 09:22:17;;;;;;;0.90;0.73;;;22.20;40.30;;;;;;4980559;28;20469;-61
2022/09/27 09:24:55;;;;;;;1.00;0.60;;;22.10;40.20;;;;;;4987023;28;21011;-62
2022/09/27 09:27:37;;;;;;;0.70;0.60;;;22.10;40.30;;;;;;4983784;28;20984;-63
2022/09/27 09:30:17;;;;;;;0.70;0.63;;;22.10;40.20;;;;;;4981795;28;20472;-64
2022/09/27 09:33:04;;;;;;;0.90;0.60;;;22.10;40.20;;;;;;4985794;28;21084;-62
2022/09/27 09:35:34;;;;;;;0.80;0.70;;;22.10;40.20;;;;;;4996011;28;20476;-61
2022/09/27 09:38:04;;;;;;;0.80;0.60;;;22.10;40.20;;;;;;4987392;28;20472;-62
2022/09/27 09:40:56;;;;;;;0.73;0.70;;;22.10;40.20;;;;;;4992592;28;20502;-68
2022/09/27 09:43:41;;;;;;;1.17;0.97;;;22.10;40.10;;;;;;4984211;28;20995;-62
2022/09/27 09:46:20;;;;;;;0.80;0.70;;;22.10;40.20;;;;;;4994622;28;20500;-64
2022/09/27 09:49:16;;;;;;;0.70;0.60;;;22.10;40.20;;;;;;4996671;28;20458;-60
2022/09/27 09:51:47;;;;;;;0.80;0.60;;;22.10;40.10;;;;;;4987771;28;20536;-67
2022/09/27 09:54:36;;;;;;;0.80;0.70;;;22.10;40.20;;;;;;4990671;28;20462;-60
2022/09/27 09:57:14;;;;;;;0.97;0.70;;;22.10;40.20;;;;;;4990477;28;20473;-64
2022/09/27 09:59:46;;;;;;;0.80;0.60;;;22.10;40.20;;;;;;4990920;28;20483;-65
2022/09/27 10:02:41;;;;;;;1.00;0.70;;;22.10;40.20;;;;;;4988781;28;20453;-66
2022/09/27 10:05:12;;;;;;;0.90;0.70;;;22.10;40.20;;;;;;4986317;28;20595;-67
2022/09/27 10:07:38;;;;;;;2.60;0.70;;;22.10;40.10;;;;;;4985802;28;20461;-63
2022/09/27 10:10:06;;;;;;;0.80;0.70;;;22.20;40.20;;;;;;4986134;28;20467;-61
2022/09/27 10:12:32;;;;;;;0.70;0.60;;;22.20;40.20;;;;;;4987754;28;20227;-60
2022/09/27 10:15:01;;;;;;;1.10;1.00;;;22.10;40.20;;;;;;4994542;28;21082;-63
2022/09/27 10:17:39;;;;;;;0.90;0.90;;;22.20;40.20;;;;;;4989782;28;20252;-62
2022/09/27 10:20:06;;;;;;;0.80;0.80;;;22.20;40.20;;;;;;4987496;28;20523;-67
2022/09/27 10:22:42;;;;;;;0.73;0.70;;;22.20;40.20;;;;;;4981451;28;21224;-63
2022/09/27 10:25:08;;;;;;;1.00;0.70;;;22.10;40.10;;;;;;4991803;28;20481;-64
2022/09/27 10:27:43;;;;;;;0.70;0.70;;;22.20;40.20;;;;;;4991074;28;20476;-65
2022/09/27 10:30:26;;;;;;;0.90;0.77;;;22.20;40.20;;;;;;4991178;28;23258;-60
2022/09/27 10:32:57;;;;;;;0.70;0.70;;;22.10;40.10;;;;;;4988298;28;20464;-60
2022/09/27 10:35:28;;;;;;;1.00;0.80;;;22.20;40.20;;;;;;4991544;28;20499;-62
2022/09/27 10:38:30;;;;;;;0.70;0.70;;;22.20;40.20;;;;;;4988465;28;20507;-61
2022/09/27 10:41:15;;;;;;;0.80;0.70;;;22.10;40.20;;;;;;4986755;28;21164;-65
2022/09/27 10:43:41;;;;;;;0.80;0.70;;;22.10;40.30;;;;;;4990467;28;20476;-66
2022/09/27 10:46:32;;;;;;;0.90;0.70;;;22.10;40.20;;;;;;4986899;28;20472;-60
2022/09/27 10:49:19;;;;;;;1.10;0.70;;;22.10;40.20;;;;;;4985930;28;20232;-63
2022/09/27 10:51:48;;;;;;;0.70;0.70;;;22.20;40.30;;;;;;4985725;28;20472;-66
2022/09/27 10:54:32;;;;;;;1.00;0.73;;;22.10;40.30;;;;;;4990641;28;20464;-59
2022/09/27 10:57:04;;;;;;;0.90;0.80;;;22.10;40.30;;;;;;4991920;28;20469;-66
2022/09/27 10:59:35;;;;;;;0.70;0.70;;;22.10;40.20;;;;;;4987106;28;20472;-61
2022/09/27 11:02:01;;;;;;;0.80;0.60;;;22.10;40.20;;;;;;4986060;28;21195;-65
2022/09/27 11:04:30;;;;;;;0.70;0.70;;;22.10;40.30;;;;;;4985615;28;21313;-65
2022/09/27 11:07:17;;;;;;;1.40;1.00;;;22.10;40.30;;;;;;4988359;28;20550;-63
2022/09/27 11:09:54;;;;;;;1.03;0.93;;;22.20;40.30;;;;;;4984098;28;21239;-62
2022/09/27 11:12:21;;;;;;;0.80;0.70;;;22.10;40.30;;;;;;4982403;28;20578;-61
2022/09/27 11:14:57;;;;;;;0.70;0.70;;;22.20;40.30;;;;;;4999836;28;20812;-63
2022/09/27 11:17:55;;;;;;;0.70;0.70;;;22.10;40.30;;;;;;4980484;28;21617;-62
2022/09/27 11:20:51;;;;;;;2.83;0.73;;;22.10;40.30;;;;;;4986153;28;20488;-64
2022/09/27 11:23:55;;;;;;;0.80;0.73;;;22.10;40.30;;;;;;4972288;28;20488;-60
2022/09/27 11:26:45;;;;;;;0.80;0.80;;;22.10;40.30;;;;;;4967219;28;20495;-63
2022/09/27 11:29:34;;;;;;;1.57;0.80;;;22.10;40.30;;;;;;4976869;28;20557;-60
2022/09/27 11:32:29;;;;;;;1.03;0.90;;;22.10;40.30;;;;;;4993059;28;20465;-61
2022/09/27 11:35:01;;;;;;;0.90;0.90;;;22.10;40.30;;;;;;4991420;28;20472;-61
2022/09/27 11:37:42;;;;;;;1.07;0.97;;;22.10;40.30;;;;;;4989493;28;20476;-66
2022/09/27 11:40:29;;;;;;;0.80;0.70;;;22.10;41.10;;;;;;4994332;28;20550;-63
2022/09/27 11:43:14;;;;;;;1.00;0.90;;;22.10;40.40;;;;;;4991092;28;20854;-62
2022/09/27 11:45:57;;;;;;;1.00;0.90;;;22.10;40.40;;;;;;4987947;28;20650;-61
2022/09/27 11:49:06;;;;;;;1.10;0.80;;;22.10;40.30;;;;;;4984009;28;20808;-62
2022/09/27 11:51:34;;;;;;;0.80;0.80;;;22.10;40.30;;;;;;4988627;28;20476;-62
2022/09/27 11:54:00;;;;;;;0.90;0.80;;;22.10;40.40;;;;;;4992007;28;20594;-62
2022/09/27 11:56:39;;;;;;;1.33;0.80;;;22.20;40.50;;;;;;4991620;28;20560;-60
2022/09/27 11:59:26;;;;;;;0.70;0.70;;;22.10;40.30;;;;;;4988499;28;20231;-66
2022/09/27 12:02:04;;;;;;;0.80;0.77;;;22.20;40.40;;;;;;4983356;28;21042;-60
2022/09/27 12:05:27;;;;;;;0.83;0.73;;;22.20;40.50;;;;;;4985902;28;20571;-65
2022/09/27 12:08:22;;;;;;;0.73;0.70;;;22.20;40.40;;;;;;4956297;28;20550;-65
2022/09/27 12:10:56;;;;;;;0.90;0.90;;;22.10;40.30;;;;;;4985389;28;20479;-66
2022/09/27 12:13:33;;;;;;;0.90;0.80;;;22.10;40.40;;;;;;4985222;28;20465;-61
2022/09/27 12:15:59;;;;;;;1.10;0.80;;;22.10;40.30;;;;;;4981937;28;20490;-65
2022/09/27 12:18:32;;;;;;;0.90;0.80;;;22.10;40.30;;;;;;4990708;28;21037;-62
2022/09/27 12:21:02;;;;;;;0.90;0.80;;;22.20;40.40;;;;;;4985716;28;20483;-63
2022/09/27 12:23:49;;;;;;;0.80;0.80;;;22.10;40.30;;;;;;4994474;28;21186;-61
2022/09/27 12:26:22;;;;;;;1.00;0.90;;;22.20;40.30;;;;;;4994115;28;20464;-63
2022/09/27 12:29:12;;;;;;;1.50;1.20;;;22.10;40.30;;;;;;4991980;28;20578;-60
2022/09/27 12:32:02;;;;;;;1.20;1.10;;;22.10;40.30;;;;;;4993252;28;20465;-68
2022/09/27 12:34:45;;;;;;;1.10;1.00;;;22.10;40.30;;;;;;4989357;28;20530;-65
2022/09/27 12:37:17;;;;;;;0.90;0.90;;;22.20;40.90;;;;;;5005979;28;20473;-65
2022/09/27 12:39:53;;;;;;;1.23;0.80;;;22.20;40.40;;;;;;4990225;28;21368;-66
2022/09/27 12:42:38;;;;;;;0.80;0.70;;;22.20;40.30;;;;;;4989235;28;20492;-59
2022/09/27 12:45:04;;;;;;;0.87;0.80;;;22.10;40.30;;;;;;4979471;28;20504;-61
2022/09/27 12:47:41;;;;;;;0.87;0.87;;;22.10;40.30;;;;;;4989040;28;20599;-65
2022/09/27 12:50:38;;;;;;;1.40;0.80;;;22.10;40.30;;;;;;4989101;28;20464;-67
2022/09/27 12:53:22;;;;;;;0.87;0.87;;;22.20;40.40;;;;;;4977907;28;20449;-62
2022/09/27 12:55:51;;;;;;;1.00;0.90;;;22.10;40.30;;;;;;4992581;28;20567;-60
2022/09/27 12:58:42;;;;;;;0.80;0.80;;;22.20;40.40;;;;;;4994302;28;20452;-64
2022/09/27 13:01:32;;;;;;;1.00;0.90;;;22.10;40.30;;;;;;4994740;28;20493;-66
2022/09/27 13:04:10;;;;;;;3.23;1.40;;;22.20;40.30;;;;;;4993589;28;20489;-65
2022/09/27 13:06:35;;;;;;;1.20;0.90;;;22.10;40.30;;;;;;4994387;28;20464;-62
2022/09/27 13:09:30;;;;;;;0.90;0.80;;;22.10;40.30;;;;;;4988042;28;20823;-66
2022/09/27 13:12:12;;;;;;;0.70;0.70;;;22.20;40.30;;;;;;4991148;28;20236;-66
2022/09/27 13:15:05;;;;;;;1.83;0.97;;;22.20;40.30;;;;;;4990636;28;20542;-60
2022/09/27 13:17:39;;;;;;;0.80;0.80;;;22.10;40.30;;;;;;4991592;28;20475;-60
2022/09/27 13:20:26;;;;;;;1.47;1.00;;;22.10;40.30;;;;;;4993691;28;20526;-64
2022/09/27 13:22:52;;;;;;;1.37;0.70;;;22.10;40.30;;;;;;4992726;28;20476;-60
2022/09/27 13:25:48;;;;;;;0.80;0.80;;;22.20;40.40;;;;;;4991813;28;20479;-67